KMNN/MNN METAR and TAF weather

Enter ICAO airport designator
Station Type Date Time Source
KMNN METAR 2019/12/12 08:53 UTC NOAA

KMNN 120853Z AUTO 15007KT 7SM CLR M09/M12 A3055 RMK AO2 SLP364 T10891117 58000


Station Type Date Time Source
KMNN Decoded METAR 2019/12/12 08:53 UTC NOAA

MARION MUNICIPAL AIRPORT, OH, United States (KMNN) 40-37N 83-04W 301M
Dec 12, 2019 - 03:53 AM EST / 2019.12.12 0853 UTC
Wind: from the SSE (150 degrees) at 8 MPH (7 KT):0
Visibility: 7 mile(s):0
Sky conditions: clear
Temperature: 16.0 F (-8.9 C)
Windchill: 5 F (-15 C):1
Dew Point: 10.9 F (-11.7 C)
Relative Humidity: 80%
Pressure (altimeter): 30.55 in. Hg (1034 hPa)
Pressure tendency: 0.00 inches (0.0 hPa) lower than three hours ago
ob: KMNN 120853Z AUTO 15007KT 7SM CLR M09/M12 A3055 RMK AO2 SLP364 T10891117 58000
cycle: 9

Station Type Date Time Source
KMNN TAF UTC NOAA

Error!

Example: see airport list